Data for 08/24/2015

Time Sea-Level Adjusted Pressure Absolute Pressure Temperature Relative Humidity Dew Point   
(mb) (inHg) (mb) (inHg) (C) (F) (%) (C) (F)
00:05 1022 30.18 851 25.13 14 57.2 30 -3.1 26.4
00:10 1022 30.18 851 25.13 14.3 57.7 30 -2.9 26.7
00:15 1022 30.18 851 25.13 14.3 57.7 30 -2.8 26.9
00:20 1022 30.18 851 25.13 14.3 57.7 30 -2.9 26.7
00:25 1022 30.18 851 25.13 14.3 57.7 30 -2.9 26.8
00:30 1022 30.18 851 25.13 14.3 57.7 29 -3.3 26.1
00:35 1022 30.18 851 25.13 14.7 58.4 28 -3.4 25.8
00:40 1022 30.18 851 25.13 14.9 58.8 28 -3.5 25.6
00:45 1022 30.18 851 25.13 15.1 59.2 27 -3.5 25.7
00:50 1022 30.18 851 25.13 15.1 59.2 28 -3.2 26.2
00:55 1022 30.18 851 25.13 15 59 28 -3.5 25.7
01:00 1022 30.18 851 25.13 15.1 59.1 27 -3.7 25.3
01:05 1022 30.18 851 25.13 15.2 59.4 27 -3.7 25.4
01:10 1022 30.18 851 25.13 15.3 59.5 27 -3.4 25.9
01:15 1022 30.18 851 25.13 15.2 59.4 27 -3.4 25.9
01:20 1022 30.18 851 25.13 15.3 59.5 27 -3.7 25.4
01:25 1022 30.18 851 25.13 15.3 59.6 27 -3.4 25.9
01:30 1022 30.18 851 25.13 15.2 59.4 27 -3.4 25.8
01:35 1022 30.18 851 25.13 15.1 59.2 27 -3.5 25.8
01:40 1022 30.18 851 25.13 14.9 58.8 28 -3.3 26.1
01:45 1022 30.18 851 25.13 14.7 58.4 29 -3.2 26.3
01:50 1022 30.18 851 25.13 14.4 58 29 -3.3 26.1
01:55 1022 30.18 851 25.13 14.4 57.9 29 -3.3 26
02:00 1022 30.18 851 25.13 14.5 58.2 29 -3.3 26.1
02:05 1022 30.18 851 25.13 14.7 58.4 29 -3.3 26
02:10 1022 30.18 851 25.13 14.7 58.5 28 -3.4 25.9
02:15 1022 30.18 851 25.13 14.8 58.6 28 -3.3 26.1
02:20 1022 30.18 851 25.13 14.6 58.4 29 -3.3 26.1
02:25 1022 30.18 851 25.13 14.5 58.1 29 -3.1 26.4
02:30 1022 30.18 851 25.13 14.4 58 30 -3 26.6
02:35 1022 30.18 851 25.13 14.3 57.8 30 -3.2 26.3
02:40 1022 30.18 851 25.13 14.4 58 30 -2.9 26.9
02:45 1022 30.18 851 25.13 14.4 57.9 30 -2.9 26.9
02:50 1022 30.18 851 25.13 14.3 57.7 30 -2.8 27
02:55 1022 30.18 851 25.13 14.1 57.3 31 -2.7 27.1
03:00 1022 30.18 851 25.13 14 57.3 31 -2.7 27.2
03:05 1022 30.18 851 25.13 13.9 56.9 32 -2.6 27.3
03:10 1022 30.18 851 25.13 13.9 57 31 -2.8 26.9
03:15 1022 30.18 851 25.13 14 57.2 31 -2.7 27.1
03:20 1022 30.18 851 25.13 14 57.2 31 -2.6 27.3
03:25 1022 30.18 851 25.13 14.3 57.8 30 -2.8 27
03:30 1022 30.18 851 25.13 14.1 57.4 32 -2.4 27.6
03:35 1022 30.18 851 25.13 13.7 56.7 32 -2.7 27.2
03:40 1022 30.18 851 25.13 13.6 56.5 34 -2 28.4
03:45 1022 30.18 851 25.13 13.2 55.7 34 -2.3 27.8
03:50 1022 30.18 851 25.13 13.2 55.7 34 -2.1 28.1
03:55 1022 30.18 851 25.13 13.1 55.5 34 -2.5 27.5
04:00 1022 30.18 851 25.13 13.1 55.5 35 -1.9 28.6
04:05 1022 30.18 851 25.13 12.9 55.3 35 -2.2 28
04:10 1022 30.18 851 25.13 13 55.5 34 -2.4 27.6
04:15 1022 30.18 851 25.13 13.1 55.5 35 -1.9 28.6
04:20 1022 30.18 851 25.13 12.9 55.1 34 -2.4 27.6
04:25 1022 30.18 851 25.13 13 55.4 35 -2.2 28
04:30 1022 30.18 851 25.13 12.6 54.7 38 -1.2 29.8
04:35 1022 30.18 851 25.13 11.8 53.3 40 -1.4 29.4
04:40 1022 30.18 851 25.13 11.8 53.2 38 -2 28.5
04:45 1022 30.18 852 25.16 11.9 53.4 39 -1.6 29.2
04:50 1022 30.18 852 25.16 11.8 53.3 41 -0.9 30.3
04:55 1022 30.18 852 25.16 11.8 53.2 40 -1.4 29.5
05:00 1022 30.18 852 25.16 11.8 53.2 39 -1.5 29.3
05:05 1022 30.18 852 25.16 11.9 53.4 37 -2.2 28.1
05:10 1022 30.18 852 25.16 12.3 54.1 39 -1.3 29.6
05:15 1023 30.21 852 25.16 11.4 52.6 44 -0.4 31.4
05:20 1023 30.21 852 25.16 10.7 51.2 44 -1.2 29.9
05:25 1023 30.21 852 25.16 11.3 52.4 38 -2.4 27.7
05:30 1023 30.21 852 25.16 12.3 54.1 36 -2.3 27.8
05:35 1023 30.21 852 25.16 12.2 53.9 39 -1.3 29.7
05:40 1023 30.21 852 25.16 12.2 53.9 36 -2.3 27.9
05:45 1023 30.21 852 25.16 12.5 54.5 36 -2.2 28
05:50 1023 30.21 852 25.16 12.4 54.3 37 -1.8 28.8
05:55 1023 30.21 852 25.16 12 53.6 37 -2.3 27.8
06:00 1023 30.21 852 25.16 12.1 53.8 39 -1.5 29.3
06:05 1023 30.21 852 25.16 11.5 52.6 41 -1.3 29.7
06:10 1023 30.21 852 25.16 11.5 52.6 38 -2.4 27.7
06:15 1023 30.21 852 25.16 12.4 54.2 37 -1.8 28.7
06:20 1023 30.21 852 25.16 12 53.7 38 -1.6 29.1
06:25 1023 30.21 852 25.16 12 53.5 39 -1.5 29.3
06:30 1023 30.21 852 25.16 11.7 53.1 41 -1.1 30
06:35 1023 30.21 852 25.16 11.8 53.2 37 -2.4 27.6
06:40 1023 30.21 852 25.16 12.8 55 36 -1.9 28.6
06:45 1023 30.21 852 25.16 12.9 55.2 36 -1.7 28.9
06:50 1023 30.21 852 25.16 12.5 54.5 39 -1 30.2
06:55 1023 30.21 852 25.16 12.3 54.1 39 -1.2 29.9
07:00 1023 30.21 852 25.16 12.4 54.3 40 -0.9 30.5
07:05 1023 30.21 852 25.16 12.6 54.6 40 -0.6 30.9
07:10 1023 30.21 852 25.16 13 55.3 37 -1.4 29.5
07:15 1023 30.21 852 25.16 13.5 56.4 36 -1.2 29.9
07:20 1023 30.21 852 25.16 13.9 56.9 36 -1 30.2
07:25 1023 30.21 852 25.16 14.1 57.4 36 -0.8 30.5
07:30 1023 30.21 852 25.16 14.2 57.6 36 -0.7 30.8
07:35 1023 30.21 852 25.16 14.4 57.8 36 -0.3 31.4
07:40 1023 30.21 852 25.16 14.7 58.4 35 -0.5 31.2
07:45 1023 30.21 852 25.16 15 58.9 37 0.6 33.1
07:50 1023 30.21 852 25.16 15.2 59.3 35 -0.1 31.7
07:55 1023 30.21 852 25.16 15.7 60.2 35 0.4 32.6
08:00 1023 30.21 852 25.16 15.9 60.7 35 0.5 32.9
08:05 1023 30.21 852 25.16 16.1 61 34 0.4 32.6
08:10 1023 30.21 852 25.16 16.2 61.2 34 0.4 32.7
08:15 1023 30.21 852 25.16 17 62.6 33 0.9 33.6
08:20 1023 30.21 852 25.16 17.7 63.9 31 0.5 32.9
08:25 1023 30.21 852 25.16 17.7 63.9 31 0.7 33.2
08:30 1023 30.21 852 25.16 17.9 64.3 30 0.2 32.3
08:35 1023 30.21 852 25.16 18.2 64.8 30 0.5 33
08:40 1023 30.21 852 25.16 18.4 65.1 30 0.8 33.5
08:45 1023 30.21 852 25.16 18.5 65.2 30 0.9 33.6
08:50 1023 30.21 852 25.16 18.6 65.6 31 1.2 34.1
08:55 1023 30.21 852 25.16 18.9 66 31 1.4 34.5
09:00 1023 30.21 852 25.16 19.3 66.7 29 1.2 34.1
09:05 1023 30.21 852 25.16 20.2 68.3 30 2.1 35.8
09:10 1023 30.21 852 25.16 20.2 68.4 29 1.7 35
09:15 1023 30.21 852 25.16 20.1 68.1 30 2.3 36.1
09:20 1023 30.21 852 25.16 20.4 68.8 29 1.7 35.1
09:25 1023 30.21 852 25.16 20.9 69.5 28 2 35.5
09:30 1023 30.21 852 25.16 20.9 69.6 27 1.3 34.4
09:35 1023 30.21 852 25.16 21.1 69.9 27 1.4 34.6
09:40 1023 30.21 852 25.16 21.4 70.4 27 2 35.6
09:45 1023 30.21 852 25.16 21.2 70.1 27 1.4 34.6
09:50 1023 30.21 852 25.16 21.2 70.2 26 1.1 34
09:55 1022 30.18 852 25.16 21.5 70.7 25 1 33.8
10:00 1022 30.18 852 25.16 21.4 70.4 25 0.7 33.2
10:05 1022 30.18 852 25.16 21.6 70.9 25 0.7 33.3
10:10 1022 30.18 852 25.16 22 71.7 24 0.9 33.6
10:15 1022 30.18 852 25.16 22.2 71.9 24 0.7 33.3
10:20 1022 30.18 852 25.16 22.6 72.7 23 0.8 33.5
10:25 1022 30.18 852 25.16 23 73.4 24 1.3 34.4
10:30 1022 30.18 851 25.13 23.2 73.8 24 1.5 34.7
10:35 1022 30.18 851 25.13 23.7 74.6 23 1.5 34.7
10:40 1022 30.18 851 25.13 23.9 74.9 22 1.3 34.3
10:45 1022 30.18 851 25.13 24 75.2 23 1.7 35.1
10:50 1022 30.18 851 25.13 24.3 75.8 22 1.5 34.8
10:55 1022 30.18 851 25.13 24.8 76.7 22 1.7 35.1
11:00 1022 30.18 851 25.13 24.6 76.3 23 2.1 35.7
11:05 1022 30.18 851 25.13 24.2 75.5 22 1.1 34
11:10 1022 30.18 851 25.13 24.7 76.4 21 1.4 34.5
11:15 1022 30.18 851 25.13 24.8 76.7 22 1.6 35
11:20 1022 30.18 851 25.13 25.2 77.3 21 1.3 34.4
11:25 1022 30.18 851 25.13 25.5 77.9 19 0.7 33.3
11:30 1022 30.18 851 25.13 25.2 77.4 19 0.4 32.8
11:35 1022 30.18 851 25.13 26 78.8 19 0.8 33.4
11:40 1022 30.18 851 25.13 26.8 80.2 17 -0.1 31.9
11:45 1021 30.15 851 25.13 27.1 80.8 17 -0 32
11:50 1021 30.15 851 25.13 26.6 80 19 1.5 34.7
11:55 1021 30.15 851 25.13 26.8 80.2 19 1.5 34.7
12:00 1021 30.15 850 25.1 27 80.6 18 0.7 33.2
12:05 1021 30.15 850 25.1 28 82.4 17 0.7 33.2
12:10 1021 30.15 850 25.1 28.9 84.1 15 0.2 32.4
12:15 1021 30.15 850 25.1 29.1 84.3 15 -0 31.9
12:20 1021 30.15 850 25.1 27.8 82 15 -0.8 30.5
12:25 1021 30.15 850 25.1 27.8 82.1 18 1.5 34.7
12:30 1021 30.15 850 25.1 28.8 83.9 14 -0.5 31
12:35 1021 30.15 850 25.1 28.4 83.2 15 -0.5 31.1
12:40 1021 30.15 850 25.1 28.2 82.8 17 1.5 34.6
12:45 1021 30.15 850 25.1 28.7 83.6 15 0.1 32.2
12:50 1021 30.15 850 25.1 28.9 84 15 -0 31.9
12:55 1021 30.15 850 25.1 29.6 85.3 15 0.8 33.5
13:00 1021 30.15 850 25.1 29.9 85.7 15 1.1 34.1
13:05 1021 30.15 850 25.1 30 85.9 15 0.8 33.5
13:10 1021 30.15 850 25.1 30 86 15 0.7 33.2
13:15 1020 30.12 850 25.1 29.7 85.4 15 0.2 32.4
13:20 1020 30.12 850 25.1 29.6 85.3 15 0.2 32.4
13:25 1020 30.12 850 25.1 29.5 85 15 0.3 32.5
13:30 1020 30.12 850 25.1 30.1 86.2 14 0.5 32.9
13:35 1020 30.12 849 25.07 29.9 85.8 14 0.3 32.5
13:40 1020 30.12 849 25.07 30.2 86.4 14 0.3 32.5
13:45 1020 30.12 849 25.07 30.2 86.3 14 0.3 32.6
13:50 1020 30.12 849 25.07 29.6 85.4 14 -0.4 31.4
13:55 1020 30.12 849 25.07 30.1 86.1 14 -0.3 31.5
14:00 1020 30.12 849 25.07 30.3 86.5 14 -0.3 31.5
14:05 1020 30.12 849 25.07 30.6 87 13 -0.5 31.2
14:10 1020 30.12 849 25.07 30.7 87.2 14 0.1 32.1
14:15 1020 30.12 849 25.07 30.6 87 13 -0.7 30.7
14:20 1020 30.12 849 25.07 31.2 88.2 13 -0.2 31.7
14:25 1020 30.12 849 25.07 31.2 88.1 12 -0.9 30.4
14:30 1020 30.12 849 25.07 31 87.8 14 0.8 33.5
14:35 1020 30.12 849 25.07 30.9 87.7 12 -1.9 28.6
14:40 1020 30.12 849 25.07 30.7 87.3 12 -1.6 29
14:45 1020 30.12 849 25.07 31 87.9 12 -1.7 29
14:50 1020 30.12 849 25.07 31.6 88.8 12 -0.8 30.6
14:55 1020 30.12 849 25.07 31.4 88.6 11 -1.9 28.7
15:00 1020 30.12 849 25.07 31.5 88.8 11 -2.6 27.3
15:05 1020 30.12 849 25.07 31.9 89.4 11 -1.7 28.9
15:10 1020 30.12 849 25.07 31.2 88.2 12 -1.4 29.5
15:15 1019 30.09 849 25.07 31.1 87.9 13 -0.5 31.1
15:20 1019 30.09 849 25.07 31 87.7 11 -3.1 26.4
15:25 1019 30.09 849 25.07 31 87.7 11 -2.3 27.9
15:30 1019 30.09 849 25.07 31.3 88.3 12 -1.7 29
15:35 1020 30.12 849 25.07 31.2 88.1 13 0.4 32.6
15:40 1020 30.12 849 25.07 31.1 88 14 0.5 32.9
15:45 1020 30.12 849 25.07 29.8 85.7 13 -1.1 30.1
15:50 1020 30.12 849 25.07 29.8 85.6 13 -1.6 29.1
15:55 1019 30.09 849 25.07 30.6 87.1 13 -0.9 30.3
16:00 1019 30.09 849 25.07 31.3 88.4 12 -1.7 29
16:05 1019 30.09 849 25.07 31.3 88.4 12 -1.6 29.1
16:10 1019 30.09 849 25.07 31.3 88.3 12 -1.1 30.1
16:15 1019 30.09 849 25.07 31 87.7 13 -0.6 30.9
16:20 1019 30.09 849 25.07 30.8 87.4 14 0.2 32.3
16:25 1019 30.09 848 25.04 30.1 86.2 18 3.8 38.8
16:30 1019 30.09 848 25.04 29.4 84.9 19 4.1 39.3
16:35 1019 30.09 848 25.04 29.6 85.2 22 5.7 42.3
16:40 1019 30.09 849 25.07 29.3 84.7 21 5.4 41.7
16:45 1019 30.09 849 25.07 29 84.2 24 6.5 43.7
16:50 1019 30.09 848 25.04 28.9 84.1 18 2.8 37.1
16:55 1019 30.09 848 25.04 28.7 83.7 22 5.4 41.7
17:00 1019 30.09 848 25.04 28.8 83.9 21 4.4 39.9
17:05 1019 30.09 848 25.04 29.1 84.3 20 3.9 39
17:10 1019 30.09 848 25.04 29 84.3 17 1.9 35.5
17:15 1019 30.09 848 25.04 28.9 84 15 -0.3 31.4
17:20 1019 30.09 848 25.04 28.9 83.9 18 2.1 35.8
17:25 1019 30.09 848 25.04 28.8 83.8 22 5.1 41.1
17:30 1019 30.09 848 25.04 29.2 84.5 19 3.8 38.8
17:35 1019 30.09 848 25.04 29.7 85.4 21 5.5 42
17:40 1019 30.09 848 25.04 29.5 85.2 22 5.8 42.4
17:45 1019 30.09 848 25.04 29.5 85 20 4.4 39.9
17:50 1019 30.09 848 25.04 29.3 84.8 15 0.1 32.1
17:55 1019 30.09 848 25.04 29.2 84.6 21 4.9 40.9
18:00 1019 30.09 848 25.04 29.1 84.4 19 3.6 38.5
18:05 1019 30.09 848 25.04 29 84.2 17 2 35.5
18:10 1019 30.09 848 25.04 29 84.1 18 2.8 37.1
18:15 1019 30.09 848 25.04 28.9 84 18 2.2 35.9
18:20 1019 30.09 848 25.04 28.8 83.9 19 3.1 37.5
18:25 1019 30.09 848 25.04 28.7 83.6 21 4.7 40.5
18:30 1019 30.09 848 25.04 28.4 83.1 18 1.9 35.5
18:35 1019 30.09 848 25.04 28.3 82.9 19 2.9 37.2
18:40 1019 30.09 849 25.07 28.1 82.6 23 5.2 41.3
18:45 1019 30.09 848 25.04 27.7 81.9 20 2.8 37.1
18:50 1019 30.09 848 25.04 27.7 81.9 18 1.4 34.6
18:55 1019 30.09 849 25.07 27.8 82.1 18 1.8 35.3
19:00 1019 30.09 849 25.07 27.4 81.4 25 6 42.7
19:05 1019 30.09 849 25.07 26.6 79.8 27 6.5 43.8
19:10 1019 30.09 849 25.07 26.2 79.1 33 8.9 48
19:15 1019 30.09 849 25.07 25.7 78.2 34 8.9 48.1
19:20 1019 30.09 849 25.07 24.9 76.8 38 9.7 49.5
19:25 1020 30.12 849 25.07 24.3 75.7 36 8.6 47.5
19:30 1020 30.12 849 25.07 23.9 75 33 6.8 44.3
19:35 1020 30.12 849 25.07 23.6 74.4 34 6.9 44.4
19:40 1020 30.12 849 25.07 23.5 74.4 37 8.3 46.9
19:45 1020 30.12 849 25.07 23.2 73.8 35 7.3 45.1
19:50 1020 30.12 849 25.07 23 73.4 33 6.2 43.2
19:55 1020 30.12 849 25.07 22.7 72.9 34 6.4 43.5
20:00 1020 30.12 849 25.07 22 71.5 35 5.8 42.5
20:05 1020 30.12 849 25.07 21.9 71.5 31 4 39.2
20:10 1020 30.12 849 25.07 22.2 72 31 4.4 39.9
20:15 1020 30.12 849 25.07 22.1 71.8 28 2.7 36.9
20:20 1020 30.12 849 25.07 21.8 71.2 32 4.7 40.4
20:25 1020 30.12 849 25.07 20.9 69.5 33 4.4 39.9
20:30 1020 30.12 849 25.07 21.3 70.4 30 3.4 38.1
20:35 1020 30.12 850 25.1 21.4 70.5 31 3.6 38.4
20:40 1020 30.12 850 25.1 21.5 70.6 29 3 37.5
20:45 1020 30.12 850 25.1 21.2 70.1 30 3.2 37.8
20:50 1020 30.12 850 25.1 20.7 69.3 33 4.3 39.7
20:55 1020 30.12 850 25.1 20.1 68.2 34 3.7 38.7
21:00 1020 30.12 850 25.1 19.8 67.7 33 3.1 37.6
21:05 1020 30.12 850 25.1 19.6 67.4 33 2.9 37.3
21:10 1020 30.12 850 25.1 19.7 67.5 33 3 37.4
21:15 1020 30.12 850 25.1 19.6 67.3 32 2.6 36.7
21:20 1020 30.12 850 25.1 19.3 66.7 33 2.6 36.7
21:25 1020 30.12 850 25.1 19.4 67 31 2.1 35.8
21:30 1020 30.12 850 25.1 19.5 67.1 31 1.9 35.5
21:35 1020 30.12 850 25.1 19.5 67.2 29 1.4 34.5
21:40 1020 30.12 850 25.1 19.9 67.8 29 1.7 35.1
21:45 1021 30.15 850 25.1 20.1 68.1 28 1.3 34.4
21:50 1021 30.15 850 25.1 20 68 29 1.6 35
21:55 1021 30.15 850 25.1 19.7 67.5 28 0.8 33.4
22:00 1021 30.15 850 25.1 20.1 68.1 28 1.3 34.4
22:05 1021 30.15 850 25.1 20 68 28 1.3 34.4
22:10 1020 30.12 850 25.1 20.1 68.1 29 1.5 34.8
22:15 1020 30.12 850 25.1 19.7 67.4 30 1.7 35
22:20 1020 30.12 850 25.1 18.9 66.1 31 1.6 34.9
22:25 1020 30.12 850 25.1 18.7 65.6 30 0.7 33.3
22:30 1020 30.12 849 25.07 19 66.2 30 1.3 34.3
22:35 1020 30.12 849 25.07 19.1 66.4 30 1.1 34
22:40 1020 30.12 849 25.07 19.1 66.4 29 0.9 33.6
22:45 1020 30.12 849 25.07 19.1 66.4 28 0.5 32.9
22:50 1020 30.12 849 25.07 19.4 67 27 0.2 32.4
22:55 1020 30.12 850 25.1 20 67.9 26 0.2 32.4
23:00 1020 30.12 850 25.1 20.4 68.7 25 0.1 32.2
23:05 1020 30.12 850 25.1 20.2 68.4 27 0.7 33.2
23:10 1021 30.15 850 25.1 19.7 67.5 30 1.6 34.9
23:15 1021 30.15 850 25.1 19 66.1 32 2.2 36
23:20 1021 30.15 850 25.1 18.7 65.7 30 1.1 34
23:25 1021 30.15 850 25.1 18.6 65.5 31 1.5 34.7
23:30 1021 30.15 850 25.1 18.5 65.3 33 1.9 35.4
23:35 1021 30.15 850 25.1 18.5 65.3 33 2 35.5
23:40 1021 30.15 850 25.1 17.6 63.7 34 1.8 35.3
23:45 1021 30.15 850 25.1 17.6 63.7 32 1 33.7
23:50 1020 30.12 850 25.1 17.9 64.2 33 1.6 34.9
23:55 1020 30.12 850 25.1 17.5 63.5 34 1.5 34.8
24:00 1021 30.15 850 25.1 17.1 62.7 35 1.8 35.2